Kingfisher D — V7PL2 — position and weather

sailwx.info

Track history (hours):
 
Tides and Currents Weather Stations Pressure Air Temp Water Temp Dewpoint Dewpoint Depression Visibility Wind Speed Wind Dir Waves Ship Positions

Kingfisher D

Last reported at 2018-Jun-19 21:58 UTC. Time now 2018-Jun-19 22:15 UTC.
Position N 52°24' E 004°52'.

Length 170 m; draft 8 m.

Type: Cargo ship. MMSI: 538003253.

Date/timePositionNaut miles runAvg speedWind from/ knotsBaromVisibWave heightAir tempDewpointWater temp
2018-Jun-19 21:58N 52°24' E 004°52'0 0.0
2018-Jun-19 21:28N 52°24' E 004°52'0 0.0
2018-Jun-19 20:58N 52°24' E 004°52'0 0.0
2018-Jun-19 20:28N 52°24' E 004°52'0 0.0
2018-Jun-19 19:58N 52°24' E 004°52'0 0.0
2018-Jun-19 19:28N 52°24' E 004°52'0 0.0
2018-Jun-19 18:58N 52°24' E 004°52'0 0.0
2018-Jun-19 18:28N 52°24' E 004°52'0 0.0
2018-Jun-19 17:58N 52°24' E 004°52'0 0.0
2018-Jun-19 17:28N 52°24' E 004°52'0 0.0
2018-Jun-19 16:58N 52°24' E 004°52'0 0.0
2018-Jun-19 16:28N 52°24' E 004°52'0 0.0
2018-Jun-19 15:58N 52°24' E 004°52'0 0.0
2018-Jun-19 15:28N 52°24' E 004°52'0 0.0
2018-Jun-19 14:58N 52°24' E 004°52'0 0.0
2018-Jun-19 14:28N 52°24' E 004°52'0 0.0
2018-Jun-19 13:58N 52°24' E 004°52'0 0.0
2018-Jun-19 13:28N 52°24' E 004°52'0 0.0
2018-Jun-19 12:58N 52°24' E 004°52'0 0.0
2018-Jun-19 12:28N 52°24' E 004°52'0 0.0
2018-Jun-19 11:58N 52°24' E 004°52'0 0.0
2018-Jun-19 11:28N 52°24' E 004°52'0 0.0
2018-Jun-19 10:58N 52°24' E 004°52'0 0.0
2018-Jun-19 10:28N 52°24' E 004°52'0 0.0
2018-Jun-19 09:58N 52°24' E 004°52'0 0.0
2018-Jun-19 09:28N 52°24' E 004°52'0 0.0
2018-Jun-19 08:58N 52°24' E 004°52'0 0.0
2018-Jun-19 08:28N 52°24' E 004°52'0 0.0
2018-Jun-19 07:58N 52°24' E 004°52'0 0.0
2018-Jun-19 07:28N 52°24' E 004°52'0 0.0
2018-Jun-19 06:58N 52°24' E 004°52'0 0.0
2018-Jun-19 06:28N 52°24' E 004°52'0 0.0
2018-Jun-19 05:58N 52°24' E 004°52'0 0.0
2018-Jun-19 05:28N 52°24' E 004°52'0 0.0
2018-Jun-19 04:58N 52°24' E 004°52'0 0.0
2018-Jun-19 04:28N 52°24' E 004°52'0 0.0
2018-Jun-19 03:58N 52°24' E 004°52'0 0.0
2018-Jun-19 03:28N 52°24' E 004°52'0 0.0
2018-Jun-19 02:58N 52°24' E 004°52'0 0.0
2018-Jun-19 02:28N 52°24' E 004°52'0 0.0
2018-Jun-19 01:58N 52°24' E 004°52'0 0.0
2018-Jun-19 01:28N 52°24' E 004°52'0 0.0
2018-Jun-19 00:58N 52°24' E 004°52'0 0.0
2018-Jun-19 00:28N 52°24' E 004°52'0 0.0
2018-Jun-18 23:58N 52°24' E 004°52'0 0.0
2018-Jun-18 23:28N 52°24' E 004°52'0 0.0
2018-Jun-18 22:58N 52°24' E 004°52'0 0.0
2018-Jun-18 22:28N 52°24' E 004°52'0 0.0
2018-Jun-18 22:01N 52°24' E 004°52'0 0.0
2018-Jun-18 21:31N 52°24' E 004°52'0 0.0
2018-Jun-18 21:00N 52°24' E 004°52'0 0.0
2018-Jun-18 20:30N 52°24' E 004°52'0 0.0
2018-Jun-18 20:00N 52°24' E 004°52'0 0.0
2018-Jun-18 19:30N 52°24' E 004°52'0 0.0
2018-Jun-18 19:00N 52°24' E 004°52'0 0.0
2018-Jun-18 18:30N 52°24' E 004°52'0 0.0
2018-Jun-18 18:00N 52°24' E 004°52'1 2.4
2018-Jun-18 17:30N 52°25' E 004°51'4 8.4
2018-Jun-18 17:00N 52°26' E 004°44'4 8.3
2018-Jun-18 16:30N 52°28' E 004°38'1 2.6
2018-Jun-18 16:00N 52°28' E 004°36'4 7.4
2018-Jun-18 15:30N 52°28' E 004°30'4 8.6
2018-Jun-18 15:00N 52°28' E 004°23'510.3
2018-Jun-18 14:30N 52°29' E 004°15'510.8
2018-Jun-18 14:00N 52°28' E 004°06'4 8.2
2018-Jun-18 13:30N 52°26' E 003°60'0 0.4
2018-Jun-18 13:00N 52°26' E 003°60'0 0.0
2018-Jun-18 12:24N 52°26' E 003°60'0 0.2
2018-Jun-18 11:57N 52°26' E 004°00'0 0.2
2018-Jun-18 11:30N 52°26' E 004°00'0 0.1
2018-Jun-18 11:00N 52°26' E 004°00'0 0.1
2018-Jun-18 10:27N 52°26' E 004°00'0 0.1
2018-Jun-18 10:00N 52°26' E 004°00'0 0.1
2018-Jun-18 09:30N 52°26' E 004°00'0 0.0
2018-Jun-18 09:00N 52°26' E 004°00'0 0.0
2018-Jun-18 08:27N 52°26' E 004°00'0 0.0
2018-Jun-18 07:54N 52°26' E 004°00'0 0.0
2018-Jun-18 07:30N 52°26' E 004°00'0 0.0
2018-Jun-18 07:00N 52°26' E 004°00'0 0.5
2018-Jun-18 06:30N 52°26' E 003°60'3 5.6
2018-Jun-18 06:00N 52°26' E 003°55'4 7.0
2018-Jun-18 05:30N 52°26' E 003°50'611.4
2018-Jun-18 04:59N 52°25' E 003°40'712.9
2018-Jun-18 04:27N 52°23' E 003°29'613.6
2018-Jun-18 04:00N 52°19' E 003°23'713.2
2018-Jun-18 03:28N 52°14' E 003°15'712.7
2018-Jun-18 02:55N 52°08' E 003°08'1711.9
2018-Jun-18 01:30N 51°56' E 002°50'1810.6
2018-Jun-17 23:47N 51°42' E 002°30'310.2
2018-Jun-17 23:30N 51°40' E 002°27'510.2
2018-Jun-17 23:00N 51°36' E 002°21'510.2
2018-Jun-17 22:30N 51°32' E 002°16'510.6
2018-Jun-17 22:00N 51°28' E 002°11'611.0
2018-Jun-17 21:30N 51°24' E 002°05'611.1
2018-Jun-17 21:00N 51°20' E 001°59'611.3
2018-Jun-17 20:30N 51°16' E 001°53'611.4
2018-Jun-17 20:00N 51°11' E 001°47'611.7
2018-Jun-17 19:30N 51°07' E 001°41'612.0
2018-Jun-17 19:00N 51°02' E 001°34'612.5
2018-Jun-17 18:30N 50°58' E 001°28'1612.4
2018-Jun-17 17:14N 50°43' E 001°20'312.4
2018-Jun-17 17:00N 50°41' E 001°17'612.7
2018-Jun-17 16:30N 50°36' E 001°10'612.4
2018-Jun-17 16:00N 50°32' E 001°03'711.8
2018-Jun-17 15:27N 50°29' E 000°54'512.2
2018-Jun-17 15:00N 50°28' E 000°46'612.2
2018-Jun-17 14:28N 50°26' E 000°36'912.5
2018-Jun-17 13:45N 50°23' E 000°22'512.8
2018-Jun-17 13:23N 50°22' E 000°15'513.3
2018-Jun-17 13:00N 50°21' E 000°07'713.7
2018-Jun-17 12:31N 50°19' W 000°03'714.2
2018-Jun-17 12:00N 50°17' W 000°14'714.9
2018-Jun-17 11:31N 50°15' W 000°25'815.2
2018-Jun-17 10:58N 50°13' W 000°37'715.4
2018-Jun-17 10:30N 50°11' W 000°48'1315.6
2018-Jun-17 09:38N 50°08' W 001°08'215.5
2018-Jun-17 09:30N 50°07' W 001°11'915.1
2018-Jun-17 08:55N 50°05' W 001°24'614.4
2018-Jun-17 08:29N 50°03' W 001°34'2712.3
2018-Jun-17 06:19N 49°56' W 002°14'410.3
2018-Jun-17 05:54N 49°55' W 002°20'410.1
2018-Jun-17 05:30N 49°54' W 002°26'6 9.7
2018-Jun-17 04:55N 49°52' W 002°35'4 9.5
2018-Jun-17 04:29N 49°51' W 002°41'5 9.5
2018-Jun-17 04:00N 49°50' W 002°48'5 9.5
2018-Jun-17 03:30N 49°49' W 002°55'7 9.8
2018-Jun-17 02:45N 49°46' W 003°05'4 9.9
2018-Jun-17 02:23N 49°44' W 003°10'410.1
2018-Jun-17 02:00N 49°42' W 003°15'910.4
2018-Jun-17 01:07N 49°37' W 003°27'210.7
2018-Jun-17 00:53N 49°36' W 003°31'510.8
2018-Jun-17 00:26N 49°33' W 003°37'611.0
2018-Jun-16 23:56N 49°31' W 003°45'911.2
2018-Jun-16 23:07N 49°26' W 003°56'3312.2
2018-Jun-16 20:26N 49°09' W 004°39'2113.3
2018-Jun-16 18:49N 48°58' W 005°08'413.5
2018-Jun-16 18:30N 48°56' W 005°13'813.5
2018-Jun-16 17:56N 48°52' W 005°24'713.5
2018-Jun-16 17:26N 48°49' W 005°32'912.8
2018-Jun-16 16:45N 48°42' W 005°41'413.1
2018-Jun-16 16:25N 48°38' W 005°44'1413.0
2018-Jun-16 15:19N 48°25' W 005°54'612.5
2018-Jun-16 14:48N 48°20' W 005°58'51811.1
2018-Jun-14 16:01N 40°09' W 009°50'210.7
2018-Jun-14 15:51N 40°08' W 009°50'4610.7
2018-Jun-14 11:31N 39°21' W 009°52'010.5
2018-Jun-14 11:30N 39°21' W 009°52'510.4
2018-Jun-14 11:00N 39°16' W 009°52'610.1
2018-Jun-14 10:26N 39°10' W 009°52'410.3
2018-Jun-14 10:00N 39°06' W 009°52'510.4
2018-Jun-14 09:30N 39°01' W 009°52'510.1
2018-Jun-14 09:01N 38°56' W 009°52'510.1
2018-Jun-14 08:30N 38°51' W 009°51'510.3
2018-Jun-14 08:00N 38°45' W 009°51'510.3
2018-Jun-14 07:30N 38°40' W 009°50'510.2
2018-Jun-14 07:00N 38°35' W 009°49'510.4
2018-Jun-14 06:30N 38°30' W 009°48'510.3
2018-Jun-14 06:00N 38°25' W 009°47'510.2
2018-Jun-14 05:30N 38°20' W 009°45'510.4
2018-Jun-14 05:00N 38°15' W 009°44'510.4
2018-Jun-14 04:29N 38°10' W 009°42'510.5
2018-Jun-14 03:59N 38°05' W 009°41'510.3
2018-Jun-14 03:30N 37°60' W 009°39'810.3
2018-Jun-14 02:44N 37°52' W 009°37'210.3
2018-Jun-14 02:30N 37°50' W 009°36'610.3
2018-Jun-14 01:58N 37°44' W 009°35'510.1
2018-Jun-14 01:27N 37°39' W 009°33'1010.1
2018-Jun-14 00:29N 37°30' W 009°30'5 9.8
2018-Jun-14 00:00N 37°25' W 009°29'5 9.3
2018-Jun-13 23:26N 37°20' W 009°27'4 9.3
2018-Jun-13 22:59N 37°16' W 009°26'5 8.9
2018-Jun-13 22:23N 37°11' W 009°24'3 8.9
2018-Jun-13 22:00N 37°08' W 009°23'5 8.6
2018-Jun-13 21:28N 37°03' W 009°22'4 8.5
2018-Jun-13 21:00N 36°59' W 009°21'44 9.6
2018-Jun-13 16:28N 36°36' W 008°35'4711.2
2018-Jun-13 12:15N 36°21' W 007°40'7611.4
2018-Jun-13 05:37N 35°57' W 006°10'410.1
2018-Jun-13 05:14N 35°58' W 006°06'4 9.6
2018-Jun-13 04:51N 35°58' W 006°01'4 9.3
2018-Jun-13 04:22N 35°57' W 005°56'3 8.9
2018-Jun-13 04:00N 35°57' W 005°52'4 8.5
2018-Jun-13 03:30N 35°57' W 005°46'5 8.6
2018-Jun-13 02:55N 35°58' W 005°40'4 9.0
2018-Jun-13 02:30N 35°58' W 005°36'5 9.5
2018-Jun-13 02:00N 35°59' W 005°30'4 8.7
2018-Jun-13 01:30N 35°60' W 005°25'4 8.2
2018-Jun-13 01:00N 36°01' W 005°20'4 7.7
2018-Jun-13 00:30N 36°02' W 005°15'4 7.5
2018-Jun-13 00:00N 36°02' W 005°10'21810.1
2018-Jun-12 02:22N 36°36' W 000°43'411.1
2018-Jun-12 02:00N 36°37' W 000°38'5311.1
2018-Jun-11 21:15N 36°45' E 000°27'411.3
2018-Jun-11 20:56N 36°46' E 000°32'1911.0
2018-Jun-11 19:15N 36°49' E 000°54'1111.0
2018-Jun-11 18:15N 36°50' E 001°08'310.9
2018-Jun-11 18:00N 36°51' E 001°11'510.9
2018-Jun-11 17:30N 36°52' E 001°18'510.7
2018-Jun-11 17:00N 36°52' E 001°25'610.6
2018-Jun-11 16:24N 36°53' E 001°33'610.6
2018-Jun-11 15:51N 36°54' E 001°40'410.5
2018-Jun-11 15:30N 36°55' E 001°44'510.4
2018-Jun-11 15:00N 36°56' E 001°51'610.3
2018-Jun-11 14:25N 36°57' E 001°58'810.3
2018-Jun-11 13:37N 36°58' E 002°08'110.3
2018-Jun-11 13:30N 36°58' E 002°10'510.4
2018-Jun-11 12:58N 36°59' E 002°17'510.4
2018-Jun-11 12:30N 36°60' E 002°23'510.0
2018-Jun-11 11:58N 37°01' E 002°29'  
Track history (hours):
 
Tides and Currents Weather Stations Pressure Air Temp Water Temp Dewpoint Dewpoint Depression Visibility Wind Speed Wind Dir Waves Ship Positions

Kingfisher D

Last reported at 2018-Jun-19 21:58 UTC. Time now 2018-Jun-19 22:15 UTC.
Position N 52°24' E 004°52'.

Length 170 m; draft 8 m.

Type: Cargo ship. MMSI: 538003253.

Date/timePositionNaut miles runAvg speedWind from/ knotsBaromVisibWave heightAir tempDewpointWater temp
2018-Jun-19 21:58N 52°24' E 004°52'0 0.0
2018-Jun-19 21:28N 52°24' E 004°52'0 0.0
2018-Jun-19 20:58N 52°24' E 004°52'0 0.0
2018-Jun-19 20:28N 52°24' E 004°52'0 0.0
2018-Jun-19 19:58N 52°24' E 004°52'0 0.0
2018-Jun-19 19:28N 52°24' E 004°52'0 0.0
2018-Jun-19 18:58N 52°24' E 004°52'0 0.0
2018-Jun-19 18:28N 52°24' E 004°52'0 0.0
2018-Jun-19 17:58N 52°24' E 004°52'0 0.0
2018-Jun-19 17:28N 52°24' E 004°52'0 0.0
2018-Jun-19 16:58N 52°24' E 004°52'0 0.0
2018-Jun-19 16:28N 52°24' E 004°52'0 0.0
2018-Jun-19 15:58N 52°24' E 004°52'0 0.0
2018-Jun-19 15:28N 52°24' E 004°52'0 0.0
2018-Jun-19 14:58N 52°24' E 004°52'0 0.0
2018-Jun-19 14:28N 52°24' E 004°52'0 0.0
2018-Jun-19 13:58N 52°24' E 004°52'0 0.0
2018-Jun-19 13:28N 52°24' E 004°52'0 0.0
2018-Jun-19 12:58N 52°24' E 004°52'0 0.0
2018-Jun-19 12:28N 52°24' E 004°52'0 0.0
2018-Jun-19 11:58N 52°24' E 004°52'0 0.0
2018-Jun-19 11:28N 52°24' E 004°52'0 0.0
2018-Jun-19 10:58N 52°24' E 004°52'0 0.0
2018-Jun-19 10:28N 52°24' E 004°52'0 0.0
2018-Jun-19 09:58N 52°24' E 004°52'0 0.0
2018-Jun-19 09:28N 52°24' E 004°52'0 0.0
2018-Jun-19 08:58N 52°24' E 004°52'0 0.0
2018-Jun-19 08:28N 52°24' E 004°52'0 0.0
2018-Jun-19 07:58N 52°24' E 004°52'0 0.0
2018-Jun-19 07:28N 52°24' E 004°52'0 0.0
2018-Jun-19 06:58N 52°24' E 004°52'0 0.0
2018-Jun-19 06:28N 52°24' E 004°52'0 0.0
2018-Jun-19 05:58N 52°24' E 004°52'0 0.0
2018-Jun-19 05:28N 52°24' E 004°52'0 0.0
2018-Jun-19 04:58N 52°24' E 004°52'0 0.0
2018-Jun-19 04:28N 52°24' E 004°52'0 0.0
2018-Jun-19 03:58N 52°24' E 004°52'0 0.0
2018-Jun-19 03:28N 52°24' E 004°52'0 0.0
2018-Jun-19 02:58N 52°24' E 004°52'0 0.0
2018-Jun-19 02:28N 52°24' E 004°52'0 0.0
2018-Jun-19 01:58N 52°24' E 004°52'0 0.0
2018-Jun-19 01:28N 52°24' E 004°52'0 0.0
2018-Jun-19 00:58N 52°24' E 004°52'0 0.0
2018-Jun-19 00:28N 52°24' E 004°52'0 0.0
2018-Jun-18 23:58N 52°24' E 004°52'0 0.0
2018-Jun-18 23:28N 52°24' E 004°52'0 0.0
2018-Jun-18 22:58N 52°24' E 004°52'0 0.0
2018-Jun-18 22:28N 52°24' E 004°52'0 0.0
2018-Jun-18 22:01N 52°24' E 004°52'0 0.0
2018-Jun-18 21:31N 52°24' E 004°52'0 0.0
2018-Jun-18 21:00N 52°24' E 004°52'0 0.0
2018-Jun-18 20:30N 52°24' E 004°52'0 0.0
2018-Jun-18 20:00N 52°24' E 004°52'0 0.0
2018-Jun-18 19:30N 52°24' E 004°52'0 0.0
2018-Jun-18 19:00N 52°24' E 004°52'0 0.0
2018-Jun-18 18:30N 52°24' E 004°52'0 0.0
2018-Jun-18 18:00N 52°24' E 004°52'1 2.4
2018-Jun-18 17:30N 52°25' E 004°51'4 8.4
2018-Jun-18 17:00N 52°26' E 004°44'4 8.3
2018-Jun-18 16:30N 52°28' E 004°38'1 2.6
2018-Jun-18 16:00N 52°28' E 004°36'4 7.4
2018-Jun-18 15:30N 52°28' E 004°30'4 8.6
2018-Jun-18 15:00N 52°28' E 004°23'510.3
2018-Jun-18 14:30N 52°29' E 004°15'510.8
2018-Jun-18 14:00N 52°28' E 004°06'4 8.2
2018-Jun-18 13:30N 52°26' E 003°60'0 0.4
2018-Jun-18 13:00N 52°26' E 003°60'0 0.0
2018-Jun-18 12:24N 52°26' E 003°60'0 0.2
2018-Jun-18 11:57N 52°26' E 004°00'0 0.2
2018-Jun-18 11:30N 52°26' E 004°00'0 0.1
2018-Jun-18 11:00N 52°26' E 004°00'0 0.1
2018-Jun-18 10:27N 52°26' E 004°00'0 0.1
2018-Jun-18 10:00N 52°26' E 004°00'0 0.1
2018-Jun-18 09:30N 52°26' E 004°00'0 0.0
2018-Jun-18 09:00N 52°26' E 004°00'0 0.0
2018-Jun-18 08:27N 52°26' E 004°00'0 0.0
2018-Jun-18 07:54N 52°26' E 004°00'0 0.0
2018-Jun-18 07:30N 52°26' E 004°00'0 0.0
2018-Jun-18 07:00N 52°26' E 004°00'0 0.5
2018-Jun-18 06:30N 52°26' E 003°60'3 5.6
2018-Jun-18 06:00N 52°26' E 003°55'4 7.0
2018-Jun-18 05:30N 52°26' E 003°50'611.4
2018-Jun-18 04:59N 52°25' E 003°40'712.9
2018-Jun-18 04:27N 52°23' E 003°29'613.6
2018-Jun-18 04:00N 52°19' E 003°23'713.2
2018-Jun-18 03:28N 52°14' E 003°15'712.7
2018-Jun-18 02:55N 52°08' E 003°08'1711.9
2018-Jun-18 01:30N 51°56' E 002°50'1810.6
2018-Jun-17 23:47N 51°42' E 002°30'310.2
2018-Jun-17 23:30N 51°40' E 002°27'510.2
2018-Jun-17 23:00N 51°36' E 002°21'510.2
2018-Jun-17 22:30N 51°32' E 002°16'510.6
2018-Jun-17 22:00N 51°28' E 002°11'611.0
2018-Jun-17 21:30N 51°24' E 002°05'611.1
2018-Jun-17 21:00N 51°20' E 001°59'611.3
2018-Jun-17 20:30N 51°16' E 001°53'611.4
2018-Jun-17 20:00N 51°11' E 001°47'611.7
2018-Jun-17 19:30N 51°07' E 001°41'612.0
2018-Jun-17 19:00N 51°02' E 001°34'612.5
2018-Jun-17 18:30N 50°58' E 001°28'1612.4
2018-Jun-17 17:14N 50°43' E 001°20'312.4
2018-Jun-17 17:00N 50°41' E 001°17'612.7
2018-Jun-17 16:30N 50°36' E 001°10'612.4
2018-Jun-17 16:00N 50°32' E 001°03'711.8
2018-Jun-17 15:27N 50°29' E 000°54'512.2
2018-Jun-17 15:00N 50°28' E 000°46'612.2
2018-Jun-17 14:28N 50°26' E 000°36'912.5
2018-Jun-17 13:45N 50°23' E 000°22'512.8
2018-Jun-17 13:23N 50°22' E 000°15'513.3
2018-Jun-17 13:00N 50°21' E 000°07'713.7
2018-Jun-17 12:31N 50°19' W 000°03'714.2
2018-Jun-17 12:00N 50°17' W 000°14'714.9
2018-Jun-17 11:31N 50°15' W 000°25'815.2
2018-Jun-17 10:58N 50°13' W 000°37'715.4
2018-Jun-17 10:30N 50°11' W 000°48'1315.6
2018-Jun-17 09:38N 50°08' W 001°08'215.5
2018-Jun-17 09:30N 50°07' W 001°11'915.1
2018-Jun-17 08:55N 50°05' W 001°24'614.4
2018-Jun-17 08:29N 50°03' W 001°34'2712.3
2018-Jun-17 06:19N 49°56' W 002°14'410.3
2018-Jun-17 05:54N 49°55' W 002°20'410.1
2018-Jun-17 05:30N 49°54' W 002°26'6 9.7
2018-Jun-17 04:55N 49°52' W 002°35'4 9.5
2018-Jun-17 04:29N 49°51' W 002°41'5 9.5
2018-Jun-17 04:00N 49°50' W 002°48'5 9.5
2018-Jun-17 03:30N 49°49' W 002°55'7 9.8
2018-Jun-17 02:45N 49°46' W 003°05'4 9.9
2018-Jun-17 02:23N 49°44' W 003°10'410.1
2018-Jun-17 02:00N 49°42' W 003°15'910.4
2018-Jun-17 01:07N 49°37' W 003°27'210.7
2018-Jun-17 00:53N 49°36' W 003°31'510.8
2018-Jun-17 00:26N 49°33' W 003°37'611.0
2018-Jun-16 23:56N 49°31' W 003°45'911.2
2018-Jun-16 23:07N 49°26' W 003°56'3312.2
2018-Jun-16 20:26N 49°09' W 004°39'2113.3
2018-Jun-16 18:49N 48°58' W 005°08'413.5
2018-Jun-16 18:30N 48°56' W 005°13'813.5
2018-Jun-16 17:56N 48°52' W 005°24'713.5
2018-Jun-16 17:26N 48°49' W 005°32'912.8
2018-Jun-16 16:45N 48°42' W 005°41'413.1
2018-Jun-16 16:25N 48°38' W 005°44'1413.0
2018-Jun-16 15:19N 48°25' W 005°54'612.5
2018-Jun-16 14:48N 48°20' W 005°58'51811.1
2018-Jun-14 16:01N 40°09' W 009°50'210.7
2018-Jun-14 15:51N 40°08' W 009°50'4610.7
2018-Jun-14 11:31N 39°21' W 009°52'010.5
2018-Jun-14 11:30N 39°21' W 009°52'510.4
2018-Jun-14 11:00N 39°16' W 009°52'610.1
2018-Jun-14 10:26N 39°10' W 009°52'410.3
2018-Jun-14 10:00N 39°06' W 009°52'510.4
2018-Jun-14 09:30N 39°01' W 009°52'510.1
2018-Jun-14 09:01N 38°56' W 009°52'510.1
2018-Jun-14 08:30N 38°51' W 009°51'510.3
2018-Jun-14 08:00N 38°45' W 009°51'510.3
2018-Jun-14 07:30N 38°40' W 009°50'510.2
2018-Jun-14 07:00N 38°35' W 009°49'510.4
2018-Jun-14 06:30N 38°30' W 009°48'510.3
2018-Jun-14 06:00N 38°25' W 009°47'510.2
2018-Jun-14 05:30N 38°20' W 009°45'510.4
2018-Jun-14 05:00N 38°15' W 009°44'510.4
2018-Jun-14 04:29N 38°10' W 009°42'510.5
2018-Jun-14 03:59N 38°05' W 009°41'510.3
2018-Jun-14 03:30N 37°60' W 009°39'810.3
2018-Jun-14 02:44N 37°52' W 009°37'210.3
2018-Jun-14 02:30N 37°50' W 009°36'610.3
2018-Jun-14 01:58N 37°44' W 009°35'510.1
2018-Jun-14 01:27N 37°39' W 009°33'1010.1
2018-Jun-14 00:29N 37°30' W 009°30'5 9.8
2018-Jun-14 00:00N 37°25' W 009°29'5 9.3
2018-Jun-13 23:26N 37°20' W 009°27'4 9.3
2018-Jun-13 22:59N 37°16' W 009°26'5 8.9
2018-Jun-13 22:23N 37°11' W 009°24'3 8.9
2018-Jun-13 22:00N 37°08' W 009°23'5 8.6
2018-Jun-13 21:28N 37°03' W 009°22'4 8.5
2018-Jun-13 21:00N 36°59' W 009°21'44 9.6
2018-Jun-13 16:28N 36°36' W 008°35'4711.2
2018-Jun-13 12:15N 36°21' W 007°40'7611.4
2018-Jun-13 05:37N 35°57' W 006°10'410.1
2018-Jun-13 05:14N 35°58' W 006°06'4 9.6
2018-Jun-13 04:51N 35°58' W 006°01'4 9.3
2018-Jun-13 04:22N 35°57' W 005°56'3 8.9
2018-Jun-13 04:00N 35°57' W 005°52'4 8.5
2018-Jun-13 03:30N 35°57' W 005°46'5 8.6
2018-Jun-13 02:55N 35°58' W 005°40'4 9.0
2018-Jun-13 02:30N 35°58' W 005°36'5 9.5
2018-Jun-13 02:00N 35°59' W 005°30'4 8.7
2018-Jun-13 01:30N 35°60' W 005°25'4 8.2
2018-Jun-13 01:00N 36°01' W 005°20'4 7.7
2018-Jun-13 00:30N 36°02' W 005°15'4 7.5
2018-Jun-13 00:00N 36°02' W 005°10'21810.1
2018-Jun-12 02:22N 36°36' W 000°43'411.1
2018-Jun-12 02:00N 36°37' W 000°38'5311.1
2018-Jun-11 21:15N 36°45' E 000°27'411.3
2018-Jun-11 20:56N 36°46' E 000°32'1911.0
2018-Jun-11 19:15N 36°49' E 000°54'1111.0
2018-Jun-11 18:15N 36°50' E 001°08'310.9
2018-Jun-11 18:00N 36°51' E 001°11'510.9
2018-Jun-11 17:30N 36°52' E 001°18'510.7
2018-Jun-11 17:00N 36°52' E 001°25'610.6
2018-Jun-11 16:24N 36°53' E 001°33'610.6
2018-Jun-11 15:51N 36°54' E 001°40'410.5
2018-Jun-11 15:30N 36°55' E 001°44'510.4
2018-Jun-11 15:00N 36°56' E 001°51'610.3
2018-Jun-11 14:25N 36°57' E 001°58'810.3
2018-Jun-11 13:37N 36°58' E 002°08'110.3
2018-Jun-11 13:30N 36°58' E 002°10'510.4
2018-Jun-11 12:58N 36°59' E 002°17'510.4
2018-Jun-11 12:30N 36°60' E 002°23'510.0
2018-Jun-11 11:58N 37°01' E 002°29'  

Dump ship's entire track history